Time;durP1;ratioP1;P1;durP2;ratioP2;P2;SDS_P1;SDS_P2;PMS_P1;PMS_P2;Temp;Humidity;BMP_temperature;BMP_pressure;BME280_temperature;BME280_humidity;BME280_pressure;Samples;Min_cycle;Max_cycle;Signal;HPM_P1;HPM_P2
2022/10/07 00:00:19;;;;;;;6.70;2.63;;;10.00;99.90;;;;;;5087727;28;20488;-70
2022/10/07 00:02:44;;;;;;;5.07;2.50;;;9.90;99.90;;;;;;5078695;28;20109;-70
2022/10/07 00:05:10;;;;;;;9.10;2.70;;;10.00;99.90;;;;;;5085214;28;20052;-72
2022/10/07 00:07:36;;;;;;;7.70;2.63;;;10.00;99.90;;;;;;5088811;28;20062;-69
2022/10/07 00:10:02;;;;;;;6.10;2.60;;;10.00;99.90;;;;;;5088470;28;20481;-69
2022/10/07 00:12:28;;;;;;;7.40;2.35;;;10.00;99.90;;;;;;5070267;28;20062;-68
2022/10/07 00:14:54;;;;;;;6.45;2.63;;;10.00;99.90;;;;;;5075447;28;20049;-68
2022/10/07 00:17:20;;;;;;;13.25;2.97;;;10.00;99.90;;;;;;5081013;28;20036;-68
2022/10/07 00:19:46;;;;;;;9.65;3.10;;;10.00;99.90;;;;;;5078811;28;20056;-68
2022/10/07 00:22:11;;;;;;;6.85;2.35;;;10.00;99.90;;;;;;5088818;28;20090;-71
2022/10/07 00:24:37;;;;;;;5.28;2.50;;;9.90;99.90;;;;;;5087438;28;20636;-69
2022/10/07 00:27:03;;;;;;;13.55;3.00;;;9.90;99.90;;;;;;5089527;28;20725;-69
2022/10/07 00:29:29;;;;;;;5.32;2.55;;;9.90;99.90;;;;;;5087385;28;20040;-69
2022/10/07 00:31:54;;;;;;;9.80;3.47;;;9.90;99.90;;;;;;5088527;28;20386;-69
2022/10/07 00:34:20;;;;;;;7.70;2.83;;;9.80;99.90;;;;;;5088579;28;20094;-69
2022/10/07 00:36:48;;;;;;;8.68;2.97;;;9.90;99.90;;;;;;5089405;28;20047;-69
2022/10/07 00:39:14;;;;;;;10.90;2.70;;;9.90;99.90;;;;;;5088128;28;20044;-72
2022/10/07 00:41:45;;;;;;;13.32;2.67;;;9.90;99.90;;;;;;5069417;28;20051;-70
2022/10/07 00:44:37;;;;;;;9.98;3.53;;;9.90;99.90;;;;;;5069097;28;20414;-69
2022/10/07 00:47:21;;;;;;;5.75;2.40;;;9.80;99.90;;;;;;5068481;28;20033;-68
2022/10/07 00:50:19;;;;;;;11.32;2.92;;;9.80;99.90;;;;;;5069116;28;20083;-69
2022/10/07 00:52:52;;;;;;;8.43;3.20;;;9.80;99.90;;;;;;5066414;28;20057;-69
2022/10/07 00:55:22;;;;;;;6.75;2.90;;;9.80;99.90;;;;;;5068947;28;20048;-72
2022/10/07 00:57:49;;;;;;;5.75;2.33;;;9.80;99.90;;;;;;5069195;28;20082;-71
2022/10/07 01:00:16;;;;;;;5.90;2.33;;;9.80;99.90;;;;;;5087209;28;20062;-71
2022/10/07 01:02:42;;;;;;;8.32;2.67;;;9.70;99.90;;;;;;5087114;28;20048;-69
2022/10/07 01:05:12;;;;;;;8.30;2.63;;;9.70;99.90;;;;;;5087340;28;20436;-71
2022/10/07 01:07:39;;;;;;;5.78;2.65;;;9.70;99.90;;;;;;5074686;28;20060;-69
2022/10/07 01:10:06;;;;;;;9.48;2.40;;;9.70;99.90;;;;;;5068749;28;20091;-69
2022/10/07 01:12:34;;;;;;;7.75;2.67;;;9.70;99.90;;;;;;5068484;28;20049;-68
2022/10/07 01:15:27;;;;;;;9.48;2.47;;;9.60;99.90;;;;;;5088107;28;20105;-69
2022/10/07 01:18:08;;;;;;;5.40;2.15;;;9.60;99.90;;;;;;5088032;28;20048;-69
2022/10/07 01:20:54;;;;;;;10.05;3.42;;;9.70;99.90;;;;;;5091173;28;20408;-68
2022/10/07 01:23:37;;;;;;;8.05;2.67;;;9.60;99.90;;;;;;5091167;28;20117;-72
2022/10/07 01:26:55;;;;;;;6.18;2.40;;;9.60;99.90;;;;;;5092758;28;20443;-69
2022/10/07 01:29:38;;;;;;;12.07;3.03;;;9.60;99.90;;;;;;5067635;28;20059;-72
2022/10/07 01:32:17;;;;;;;12.38;3.42;;;9.60;99.90;;;;;;5090835;28;20436;-71
2022/10/07 01:34:45;;;;;;;7.53;2.50;;;9.60;99.90;;;;;;5089632;28;20074;-68
2022/10/07 01:37:15;;;;;;;10.63;2.88;;;9.60;99.90;;;;;;5092136;28;20155;-69
2022/10/07 01:39:47;;;;;;;11.88;2.97;;;9.50;99.90;;;;;;5079703;28;20160;-69
2022/10/07 01:42:13;;;;;;;10.43;2.47;;;9.50;99.90;;;;;;5072356;28;20128;-69
2022/10/07 01:44:40;;;;;;;13.80;2.60;;;9.50;99.90;;;;;;5071698;28;20127;-69
2022/10/07 01:47:06;;;;;;;7.47;2.20;;;9.50;99.90;;;;;;5073794;28;20622;-68
2022/10/07 01:49:31;;;;;;;;;;;9.40;99.90;;;;;;5091034;28;20097;-71
2022/10/07 01:52:08;;;;;;;7.97;2.50;;;9.40;99.90;;;;;;5089500;28;19923;-70
2022/10/07 01:55:06;;;;;;;7.75;2.50;;;9.40;99.90;;;;;;5091375;28;20044;-68
2022/10/07 01:57:50;;;;;;;;;;;9.30;99.90;;;;;;5111146;27;20048;-69
2022/10/07 02:00:16;;;;;;;13.68;2.78;;;9.30;99.90;;;;;;5092205;28;19924;-68
2022/10/07 02:02:47;;;;;;;;;;;9.30;99.90;;;;;;5091037;28;20051;-68
2022/10/07 02:05:12;;;;;;;11.57;2.70;;;9.30;99.90;;;;;;5092135;28;19920;-70
2022/10/07 02:07:51;;;;;;;9.32;2.60;;;9.20;99.90;;;;;;5090576;28;20051;-70
2022/10/07 02:10:43;;;;;;;7.00;3.05;;;9.30;99.90;;;;;;5091334;28;20095;-69
2022/10/07 02:13:21;;;;;;;12.43;2.78;;;9.30;99.90;;;;;;5085942;28;20490;-68
2022/10/07 02:16:17;;;;;;;11.75;3.17;;;9.30;99.90;;;;;;5082568;28;20114;-71
2022/10/07 02:18:47;;;;;;;10.02;3.00;;;9.20;99.90;;;;;;5069780;28;20873;-70
2022/10/07 02:21:16;;;;;;;13.18;2.63;;;9.20;99.90;;;;;;5070718;28;20540;-69
2022/10/07 02:23:45;;;;;;;10.27;3.25;;;9.20;99.90;;;;;;5068881;28;20059;-69
2022/10/07 02:26:14;;;;;;;12.27;2.50;;;9.20;99.90;;;;;;5071389;28;20480;-68
2022/10/07 02:28:42;;;;;;;10.63;2.72;;;9.10;99.90;;;;;;5070587;28;20797;-69
2022/10/07 02:31:11;;;;;;;18.48;3.20;;;9.20;99.90;;;;;;5070335;28;20198;-69
2022/10/07 02:33:39;;;;;;;11.32;2.50;;;9.20;99.90;;;;;;5070559;28;20496;-69
2022/10/07 02:36:10;;;;;;;7.97;2.70;;;9.20;99.90;;;;;;5071041;28;20504;-70
2022/10/07 02:38:38;;;;;;;13.35;2.80;;;9.30;99.90;;;;;;5069449;28;20490;-68
2022/10/07 02:41:33;;;;;;;8.20;2.95;;;9.30;99.90;;;;;;5078313;28;20074;-69
2022/10/07 02:44:04;;;;;;;7.50;2.90;;;9.30;99.90;;;;;;5081131;28;20060;-69
2022/10/07 02:46:37;;;;;;;10.10;2.97;;;9.30;99.90;;;;;;5081895;28;20129;-72
2022/10/07 02:49:09;;;;;;;11.00;3.00;;;9.30;99.90;;;;;;5106850;28;20048;-68
2022/10/07 02:51:41;;;;;;;5.85;2.33;;;9.40;99.90;;;;;;5090690;28;20080;-69
2022/10/07 02:54:07;;;;;;;10.00;3.13;;;9.40;99.90;;;;;;5087304;28;20497;-70
2022/10/07 02:56:36;;;;;;;12.55;2.88;;;9.30;99.90;;;;;;5084139;28;20048;-70
2022/10/07 02:59:06;;;;;;;11.30;3.03;;;9.60;99.90;;;;;;5086438;28;20052;-68
2022/10/07 03:01:38;;;;;;;7.85;2.58;;;9.30;99.90;;;;;;5069097;28;20405;-69
2022/10/07 03:04:04;;;;;;;10.95;2.35;;;9.30;99.90;;;;;;5077196;28;20082;-70
2022/10/07 03:06:30;;;;;;;8.43;3.05;;;9.30;99.90;;;;;;5085869;28;20069;-72
2022/10/07 03:08:56;;;;;;;10.57;2.78;;;9.30;99.90;;;;;;5069416;28;20124;-69
2022/10/07 03:11:23;;;;;;;6.45;2.90;;;9.30;99.90;;;;;;5070531;28;20474;-69
2022/10/07 03:13:49;;;;;;;13.32;3.15;;;9.30;99.90;;;;;;5088217;28;20051;-69
2022/10/07 03:16:15;;;;;;;9.98;2.72;;;9.30;99.90;;;;;;5089658;28;20048;-68
2022/10/07 03:18:40;;;;;;;8.70;2.40;;;9.30;99.90;;;;;;5071896;28;20058;-69
2022/10/07 03:21:07;;;;;;;11.48;2.88;;;9.30;99.90;;;;;;5081971;28;20052;-69
2022/10/07 03:23:33;;;;;;;8.93;2.70;;;9.30;99.90;;;;;;5084641;28;20044;-72
2022/10/07 03:25:59;;;;;;;8.07;2.63;;;9.30;99.90;;;;;;5085254;28;20038;-70
2022/10/07 03:28:27;;;;;;;14.32;3.20;;;9.30;99.90;;;;;;5088394;28;20073;-69
2022/10/07 03:30:53;;;;;;;7.95;2.50;;;9.30;99.90;;;;;;5089938;28;20123;-69
2022/10/07 03:33:24;;;;;;;11.77;2.45;;;9.30;99.90;;;;;;5089273;28;20123;-69
2022/10/07 03:35:50;;;;;;;12.90;3.40;;;9.20;99.90;;;;;;5089652;28;20113;-70
2022/10/07 03:38:16;;;;;;;13.82;2.85;;;9.20;99.90;;;;;;5089200;28;20447;-69
2022/10/07 03:40:42;;;;;;;;;;;9.20;99.90;;;;;;5090212;28;20048;-69
2022/10/07 03:43:08;;;;;;;7.82;3.20;;;9.20;99.90;;;;;;5089801;28;20023;-69
2022/10/07 03:45:36;;;;;;;11.82;2.92;;;9.20;99.90;;;;;;5095093;28;20533;-72
2022/10/07 03:48:02;;;;;;;9.20;2.65;;;9.20;99.90;;;;;;5067694;28;20049;-70
2022/10/07 03:50:28;;;;;;;18.48;3.65;;;9.30;99.90;;;;;;5085518;28;20055;-68
2022/10/07 03:52:55;;;;;;;6.85;2.60;;;9.20;99.90;;;;;;5068289;28;20133;-69
2022/10/07 03:55:20;;;;;;;9.77;3.05;;;9.20;99.90;;;;;;5070622;28;20433;-69
2022/10/07 03:57:49;;;;;;;11.80;2.88;;;9.30;99.90;;;;;;5069306;28;20064;-69
2022/10/07 04:00:20;;;;;;;10.52;3.22;;;9.30;99.90;;;;;;5068900;28;20390;-69
2022/10/07 04:02:46;;;;;;;8.15;2.92;;;9.20;99.90;;;;;;5068347;28;20493;-69
2022/10/07 04:05:14;;;;;;;12.82;3.42;;;9.20;99.90;;;;;;5069772;28;20048;-68
2022/10/07 04:07:42;;;;;;;11.48;3.03;;;9.20;99.90;;;;;;5068864;28;20041;-69
2022/10/07 04:10:09;;;;;;;11.90;3.10;;;9.20;99.90;;;;;;5089508;28;20406;-68
2022/10/07 04:12:35;;;;;;;10.50;3.28;;;9.10;99.90;;;;;;5071884;28;20474;-73
2022/10/07 04:15:01;;;;;;;8.93;2.97;;;9.10;99.90;;;;;;5069594;28;20060;-68
2022/10/07 04:17:27;;;;;;;20.27;3.95;;;9.20;99.90;;;;;;5088287;28;20546;-71
2022/10/07 04:19:53;;;;;;;8.75;3.08;;;9.20;99.90;;;;;;5088021;28;20783;-68
2022/10/07 04:22:18;;;;;;;10.07;2.97;;;9.20;99.90;;;;;;5087447;28;20083;-69
2022/10/07 04:25:32;;;;;;;7.20;2.97;;;9.20;99.90;;;;;;5088690;28;20047;-71
2022/10/07 04:27:30;;;;;;;7.80;2.95;;;9.20;99.90;;;;;;5073653;28;20066;-71
2022/10/07 04:29:56;;;;;;;11.60;3.50;;;9.10;99.90;;;;;;5089003;28;20052;-71
2022/10/07 04:32:21;;;;;;;23.80;4.38;;;9.10;99.90;;;;;;5087144;28;20059;-68
2022/10/07 04:34:51;;;;;;;10.00;3.35;;;9.10;99.90;;;;;;5073672;28;20094;-69
2022/10/07 04:37:17;;;;;;;8.52;3.20;;;9.00;99.90;;;;;;5078481;28;20147;-71
2022/10/07 04:39:42;;;;;;;9.02;2.95;;;9.00;99.90;;;;;;5088723;28;20449;-70
2022/10/07 04:43:17;;;;;;;10.77;2.70;;;9.00;99.90;;;;;;5087293;28;20048;-70
2022/10/07 04:44:54;;;;;;;13.35;2.80;;;9.00;99.90;;;;;;5087146;28;20048;-70
2022/10/07 04:47:19;;;;;;;8.88;2.90;;;8.90;99.90;;;;;;5088457;28;20097;-69
2022/10/07 04:49:45;;;;;;;18.17;3.80;;;8.90;99.90;;;;;;5088718;28;20139;-71
2022/10/07 04:52:11;;;;;;;9.32;3.80;;;8.90;99.90;;;;;;5088236;28;20065;-69
2022/10/07 04:54:38;;;;;;;12.77;3.50;;;8.90;99.90;;;;;;5088624;28;20079;-71
2022/10/07 04:57:04;;;;;;;15.32;3.50;;;8.90;99.90;;;;;;5071276;28;20063;-68
2022/10/07 04:59:30;;;;;;;4.80;2.40;;;8.90;99.90;;;;;;5087781;28;20147;-69
2022/10/07 05:01:55;;;;;;;14.13;3.33;;;8.90;99.90;;;;;;5091681;28;20048;-68
2022/10/07 05:04:21;;;;;;;13.32;3.67;;;9.00;99.90;;;;;;5092873;28;20052;-68
2022/10/07 05:06:47;;;;;;;9.98;3.50;;;8.90;99.90;;;;;;5084035;28;20046;-70
2022/10/07 05:09:13;;;;;;;9.88;2.95;;;8.90;99.90;;;;;;5071875;28;20064;-68
2022/10/07 05:11:38;;;;;;;6.38;3.10;;;9.00;99.90;;;;;;5085863;28;20141;-71
2022/10/07 05:14:04;;;;;;;11.20;3.42;;;9.00;99.90;;;;;;5092782;28;20081;-69
2022/10/07 05:16:30;;;;;;;12.85;3.35;;;9.10;99.90;;;;;;5087372;28;20048;-70
2022/10/07 05:18:56;;;;;;;14.48;3.42;;;9.00;99.90;;;;;;5071854;28;20063;-69
2022/10/07 05:21:21;;;;;;;12.05;4.40;;;8.90;99.90;;;;;;5082867;28;20060;-69
2022/10/07 05:23:47;;;;;;;16.95;3.47;;;9.00;99.90;;;;;;5091407;28;20048;-69
2022/10/07 05:26:14;;;;;;;11.60;3.45;;;8.90;99.90;;;;;;5092725;28;20492;-69
2022/10/07 05:28:40;;;;;;;11.95;3.80;;;8.90;99.90;;;;;;5079134;28;20044;-71
2022/10/07 05:31:08;;;;;;;11.80;3.25;;;8.90;99.90;;;;;;5071245;28;20056;-69
2022/10/07 05:33:35;;;;;;;12.00;2.80;;;8.90;99.90;;;;;;5072435;28;20049;-70
2022/10/07 05:36:02;;;;;;;15.90;3.45;;;8.90;99.90;;;;;;5073934;28;20229;-70
2022/10/07 05:38:27;;;;;;;8.70;3.45;;;8.90;99.90;;;;;;5087028;28;20055;-70
2022/10/07 05:40:58;;;;;;;16.00;3.25;;;8.90;99.90;;;;;;5091974;28;20048;-69
2022/10/07 05:43:25;;;;;;;13.05;3.50;;;8.90;99.90;;;;;;5091873;28;20093;-71
2022/10/07 05:46:02;;;;;;;13.30;3.30;;;8.90;99.90;;;;;;5083959;28;20049;-71
2022/10/07 05:48:29;;;;;;;12.07;3.50;;;8.90;99.90;;;;;;5080515;28;20489;-70
2022/10/07 05:50:56;;;;;;;14.70;3.90;;;9.00;99.90;;;;;;5087103;28;20040;-70
2022/10/07 05:53:23;;;;;;;11.15;3.15;;;8.90;99.90;;;;;;5094418;28;20107;-70
2022/10/07 05:55:50;;;;;;;13.63;3.50;;;9.00;99.90;;;;;;5097471;28;20052;-71
2022/10/07 05:58:16;;;;;;;13.55;3.70;;;8.90;99.90;;;;;;5085005;28;20056;-72
2022/10/07 06:00:54;;;;;;;8.88;3.22;;;8.90;99.90;;;;;;5094407;28;20044;-74
2022/10/07 06:03:21;;;;;;;18.40;3.50;;;8.90;99.90;;;;;;5089612;28;20048;-73
2022/10/07 06:05:49;;;;;;;12.30;3.38;;;9.00;99.90;;;;;;5090095;27;20608;-74
2022/10/07 06:08:17;;;;;;;10.77;3.30;;;9.00;99.90;;;;;;5091139;28;20082;-71
2022/10/07 06:13:27;;;;;;;8.68;2.80;;;9.00;99.90;;;;;;5066062;28;20745;-71
2022/10/07 06:15:52;;;;;;;8.07;3.13;;;9.10;99.90;;;;;;5078893;28;20036;-72
2022/10/07 06:18:18;;;;;;;7.57;3.60;;;9.00;99.90;;;;;;5078228;28;20052;-71
2022/10/07 06:20:55;;;;;;;9.80;3.10;;;9.00;99.90;;;;;;5079973;28;20482;-73
2022/10/07 06:23:21;;;;;;;8.70;3.03;;;9.10;99.90;;;;;;5081559;28;20079;-73
